sensor_id;sensor_type;location;lat;lon;timestamp;P1;durP1;ratioP1;P2;durP2;ratioP2
37517;SDS011;23366;52.498;13.446;2022-12-29T00:03:47;1.73;;;1.42;;
37517;SDS011;23366;52.498;13.446;2022-12-29T00:06:12;2.83;;;1.75;;
37517;SDS011;23366;52.498;13.446;2022-12-29T00:08:38;2.45;;;1.30;;
37517;SDS011;23366;52.498;13.446;2022-12-29T00:11:14;1.52;;;1.10;;
37517;SDS011;23366;52.498;13.446;2022-12-29T00:13:51;2.85;;;1.63;;
37517;SDS011;23366;52.498;13.446;2022-12-29T00:16:36;1.42;;;1.13;;
37517;SDS011;23366;52.498;13.446;2022-12-29T00:19:10;1.70;;;1.27;;
37517;SDS011;23366;52.498;13.446;2022-12-29T00:21:57;1.63;;;0.90;;
37517;SDS011;23366;52.498;13.446;2022-12-29T00:24:50;1.55;;;1.00;;
37517;SDS011;23366;52.498;13.446;2022-12-29T00:27:34;2.15;;;1.35;;
37517;SDS011;23366;52.498;13.446;2022-12-29T00:30:23;2.08;;;1.27;;
37517;SDS011;23366;52.498;13.446;2022-12-29T00:33:28;4.65;;;1.30;;
37517;SDS011;23366;52.498;13.446;2022-12-29T00:36:24;1.10;;;0.90;;
37517;SDS011;23366;52.498;13.446;2022-12-29T00:38:59;2.50;;;1.17;;
37517;SDS011;23366;52.498;13.446;2022-12-29T00:41:47;3.00;;;1.13;;
37517;SDS011;23366;52.498;13.446;2022-12-29T00:44:32;2.00;;;1.20;;
37517;SDS011;23366;52.498;13.446;2022-12-29T00:46:58;3.83;;;2.00;;
37517;SDS011;23366;52.498;13.446;2022-12-29T00:49:29;2.60;;;1.02;;
37517;SDS011;23366;52.498;13.446;2022-12-29T00:52:03;1.42;;;0.75;;
37517;SDS011;23366;52.498;13.446;2022-12-29T00:54:34;2.53;;;1.50;;
37517;SDS011;23366;52.498;13.446;2022-12-29T00:57:02;1.85;;;1.08;;
37517;SDS011;23366;52.498;13.446;2022-12-29T00:59:37;3.58;;;1.33;;
37517;SDS011;23366;52.498;13.446;2022-12-29T01:02:10;4.45;;;1.55;;
37517;SDS011;23366;52.498;13.446;2022-12-29T01:04:36;2.58;;;0.90;;
37517;SDS011;23366;52.498;13.446;2022-12-29T01:07:02;2.88;;;1.70;;
37517;SDS011;23366;52.498;13.446;2022-12-29T01:09:31;1.83;;;1.05;;
37517;SDS011;23366;52.498;13.446;2022-12-29T01:12:18;2.53;;;1.23;;
37517;SDS011;23366;52.498;13.446;2022-12-29T01:15:05;5.18;;;1.25;;
37517;SDS011;23366;52.498;13.446;2022-12-29T01:17:32;1.05;;;1.00;;
37517;SDS011;23366;52.498;13.446;2022-12-29T01:19:59;0.93;;;0.90;;
37517;SDS011;23366;52.498;13.446;2022-12-29T01:22:27;1.40;;;0.80;;
37517;SDS011;23366;52.498;13.446;2022-12-29T01:24:52;2.33;;;1.58;;
37517;SDS011;23366;52.498;13.446;2022-12-29T01:27:18;1.42;;;0.80;;
37517;SDS011;23366;52.498;13.446;2022-12-29T01:29:44;3.13;;;1.02;;
37517;SDS011;23366;52.498;13.446;2022-12-29T01:32:09;2.38;;;1.15;;
37517;SDS011;23366;52.498;13.446;2022-12-29T01:34:35;1.25;;;0.90;;
37517;SDS011;23366;52.498;13.446;2022-12-29T01:37:01;3.63;;;1.02;;
37517;SDS011;23366;52.498;13.446;2022-12-29T01:39:29;2.40;;;1.63;;
37517;SDS011;23366;52.498;13.446;2022-12-29T01:41:54;2.97;;;1.23;;
37517;SDS011;23366;52.498;13.446;2022-12-29T01:44:46;1.25;;;1.10;;
37517;SDS011;23366;52.498;13.446;2022-12-29T01:47:18;4.35;;;1.15;;
37517;SDS011;23366;52.498;13.446;2022-12-29T01:49:51;1.85;;;1.48;;
37517;SDS011;23366;52.498;13.446;2022-12-29T01:52:19;2.47;;;1.15;;
37517;SDS011;23366;52.498;13.446;2022-12-29T01:54:48;4.25;;;1.10;;
37517;SDS011;23366;52.498;13.446;2022-12-29T01:57:27;1.42;;;1.00;;
37517;SDS011;23366;52.498;13.446;2022-12-29T01:59:57;2.10;;;1.38;;
37517;SDS011;23366;52.498;13.446;2022-12-29T02:02:35;3.22;;;1.27;;
37517;SDS011;23366;52.498;13.446;2022-12-29T02:05:03;2.55;;;1.73;;
37517;SDS011;23366;52.498;13.446;2022-12-29T02:07:35;2.72;;;1.75;;
37517;SDS011;23366;52.498;13.446;2022-12-29T02:10:02;3.25;;;1.13;;
37517;SDS011;23366;52.498;13.446;2022-12-29T02:12:29;2.40;;;1.27;;
37517;SDS011;23366;52.498;13.446;2022-12-29T02:14:55;1.25;;;0.95;;
37517;SDS011;23366;52.498;13.446;2022-12-29T02:20:37;0.98;;;0.90;;
37517;SDS011;23366;52.498;13.446;2022-12-29T02:23:36;1.10;;;1.00;;
37517;SDS011;23366;52.498;13.446;2022-12-29T02:29:10;3.90;;;1.05;;
37517;SDS011;23366;52.498;13.446;2022-12-29T02:34:52;1.92;;;0.88;;
37517;SDS011;23366;52.498;13.446;2022-12-29T02:37:43;4.93;;;2.20;;
37517;SDS011;23366;52.498;13.446;2022-12-29T02:46:10;2.42;;;1.02;;
37517;SDS011;23366;52.498;13.446;2022-12-29T02:49:33;1.13;;;1.00;;
37517;SDS011;23366;52.498;13.446;2022-12-29T02:51:39;1.58;;;0.93;;
37517;SDS011;23366;52.498;13.446;2022-12-29T02:54:13;1.88;;;1.20;;
37517;SDS011;23366;52.498;13.446;2022-12-29T02:57:01;5.00;;;1.55;;
37517;SDS011;23366;52.498;13.446;2022-12-29T02:59:27;1.05;;;0.70;;
37517;SDS011;23366;52.498;13.446;2022-12-29T03:13:43;2.88;;;1.23;;
37517;SDS011;23366;52.498;13.446;2022-12-29T03:16:53;1.73;;;1.27;;
37517;SDS011;23366;52.498;13.446;2022-12-29T03:22:08;4.10;;;0.85;;
37517;SDS011;23366;52.498;13.446;2022-12-29T03:25:08;1.15;;;0.80;;
37517;SDS011;23366;52.498;13.446;2022-12-29T03:28:05;1.67;;;0.93;;
37517;SDS011;23366;52.498;13.446;2022-12-29T03:30:34;2.13;;;1.08;;
37517;SDS011;23366;52.498;13.446;2022-12-29T03:33:04;4.45;;;1.30;;
37517;SDS011;23366;52.498;13.446;2022-12-29T03:35:37;1.10;;;0.82;;
37517;SDS011;23366;52.498;13.446;2022-12-29T03:38:16;1.48;;;0.90;;
37517;SDS011;23366;52.498;13.446;2022-12-29T03:41:03;2.03;;;1.38;;
37517;SDS011;23366;52.498;13.446;2022-12-29T03:43:36;0.93;;;0.70;;
37517;SDS011;23366;52.498;13.446;2022-12-29T03:46:01;2.65;;;1.15;;
37517;SDS011;23366;52.498;13.446;2022-12-29T03:48:35;0.95;;;0.90;;
37517;SDS011;23366;52.498;13.446;2022-12-29T03:51:00;1.05;;;0.85;;
37517;SDS011;23366;52.498;13.446;2022-12-29T03:53:28;1.60;;;0.80;;
37517;SDS011;23366;52.498;13.446;2022-12-29T03:55:54;0.85;;;0.80;;
37517;SDS011;23366;52.498;13.446;2022-12-29T03:58:20;0.98;;;0.82;;
37517;SDS011;23366;52.498;13.446;2022-12-29T04:00:48;1.65;;;1.17;;
37517;SDS011;23366;52.498;13.446;2022-12-29T04:03:14;1.45;;;1.23;;
37517;SDS011;23366;52.498;13.446;2022-12-29T04:05:39;2.33;;;0.88;;
37517;SDS011;23366;52.498;13.446;2022-12-29T04:08:11;1.27;;;0.77;;
37517;SDS011;23366;52.498;13.446;2022-12-29T04:10:39;2.72;;;2.47;;
37517;SDS011;23366;52.498;13.446;2022-12-29T04:13:05;0.88;;;0.77;;
37517;SDS011;23366;52.498;13.446;2022-12-29T04:15:33;3.05;;;0.95;;
37517;SDS011;23366;52.498;13.446;2022-12-29T04:17:59;1.02;;;0.75;;
37517;SDS011;23366;52.498;13.446;2022-12-29T04:20:27;1.92;;;1.08;;
37517;SDS011;23366;52.498;13.446;2022-12-29T04:25:55;1.00;;;0.85;;
37517;SDS011;23366;52.498;13.446;2022-12-29T04:31:06;0.88;;;0.88;;
37517;SDS011;23366;52.498;13.446;2022-12-29T04:33:57;1.23;;;1.00;;
37517;SDS011;23366;52.498;13.446;2022-12-29T04:43:52;1.30;;;0.90;;
37517;SDS011;23366;52.498;13.446;2022-12-29T04:50:26;1.73;;;0.95;;
37517;SDS011;23366;52.498;13.446;2022-12-29T04:56:34;3.92;;;1.23;;
37517;SDS011;23366;52.498;13.446;2022-12-29T05:03:41;0.90;;;0.73;;
37517;SDS011;23366;52.498;13.446;2022-12-29T05:06:07;1.15;;;0.70;;
37517;SDS011;23366;52.498;13.446;2022-12-29T05:11:36;3.03;;;1.15;;
37517;SDS011;23366;52.498;13.446;2022-12-29T05:17:50;1.58;;;0.90;;
37517;SDS011;23366;52.498;13.446;2022-12-29T05:20:26;2.55;;;1.50;;
37517;SDS011;23366;52.498;13.446;2022-12-29T05:24:06;1.20;;;0.80;;
37517;SDS011;23366;52.498;13.446;2022-12-29T05:43:38;1.23;;;1.05;;
37517;SDS011;23366;52.498;13.446;2022-12-29T05:52:04;2.15;;;1.05;;
37517;SDS011;23366;52.498;13.446;2022-12-29T05:57:57;1.85;;;0.98;;
37517;SDS011;23366;52.498;13.446;2022-12-29T06:07:46;0.93;;;0.80;;
37517;SDS011;23366;52.498;13.446;2022-12-29T06:27:36;1.33;;;0.98;;
37517;SDS011;23366;52.498;13.446;2022-12-29T06:33:48;2.13;;;1.50;;
37517;SDS011;23366;52.498;13.446;2022-12-29T06:43:28;1.27;;;1.02;;
37517;SDS011;23366;52.498;13.446;2022-12-29T06:56:22;1.17;;;0.80;;
37517;SDS011;23366;52.498;13.446;2022-12-29T07:14:02;2.50;;;0.60;;
37517;SDS011;23366;52.498;13.446;2022-12-29T09:06:01;1.75;;;1.00;;
37517;SDS011;23366;52.498;13.446;2022-12-29T12:20:14;1.02;;;0.50;;
37517;SDS011;23366;52.498;13.446;2022-12-29T12:26:11;0.60;;;0.60;;
37517;SDS011;23366;52.498;13.446;2022-12-29T12:29:32;1.27;;;0.77;;
37517;SDS011;23366;52.498;13.446;2022-12-29T12:45:49;1.13;;;1.02;;
37517;SDS011;23366;52.498;13.446;2022-12-29T13:04:47;2.03;;;0.90;;
37517;SDS011;23366;52.498;13.446;2022-12-29T13:22:57;6.43;;;3.38;;
37517;SDS011;23366;52.498;13.446;2022-12-29T13:35:48;3.28;;;1.80;;
37517;SDS011;23366;52.498;13.446;2022-12-29T13:38:40;3.13;;;2.05;;
37517;SDS011;23366;52.498;13.446;2022-12-29T13:41:30;4.07;;;2.20;;
37517;SDS011;23366;52.498;13.446;2022-12-29T13:44:00;2.83;;;1.50;;
37517;SDS011;23366;52.498;13.446;2022-12-29T13:46:29;2.58;;;1.38;;
37517;SDS011;23366;52.498;13.446;2022-12-29T13:49:15;1.50;;;1.10;;
37517;SDS011;23366;52.498;13.446;2022-12-29T14:01:58;8.27;;;2.50;;
37517;SDS011;23366;52.498;13.446;2022-12-29T14:05:05;3.72;;;2.00;;
37517;SDS011;23366;52.498;13.446;2022-12-29T14:08:18;2.92;;;1.48;;
37517;SDS011;23366;52.498;13.446;2022-12-29T14:11:15;4.95;;;2.20;;
37517;SDS011;23366;52.498;13.446;2022-12-29T14:14:30;1.50;;;1.27;;
37517;SDS011;23366;52.498;13.446;2022-12-29T14:17:35;3.03;;;1.60;;
37517;SDS011;23366;52.498;13.446;2022-12-29T14:30:48;2.55;;;1.63;;
37517;SDS011;23366;52.498;13.446;2022-12-29T14:37:35;6.85;;;2.63;;
37517;SDS011;23366;52.498;13.446;2022-12-29T14:40:23;4.45;;;2.47;;
37517;SDS011;23366;52.498;13.446;2022-12-29T14:43:00;4.55;;;1.92;;
37517;SDS011;23366;52.498;13.446;2022-12-29T14:45:58;3.25;;;1.90;;
37517;SDS011;23366;52.498;13.446;2022-12-29T14:48:43;4.80;;;2.13;;
37517;SDS011;23366;52.498;13.446;2022-12-29T14:52:24;3.30;;;1.42;;
37517;SDS011;23366;52.498;13.446;2022-12-29T14:55:47;4.25;;;1.92;;
37517;SDS011;23366;52.498;13.446;2022-12-29T14:58:27;2.75;;;1.95;;
37517;SDS011;23366;52.498;13.446;2022-12-29T15:05:27;7.78;;;2.10;;
37517;SDS011;23366;52.498;13.446;2022-12-29T15:15:45;10.55;;;4.35;;
37517;SDS011;23366;52.498;13.446;2022-12-29T15:18:30;7.40;;;3.70;;
37517;SDS011;23366;52.498;13.446;2022-12-29T15:21:49;4.80;;;2.53;;
37517;SDS011;23366;52.498;13.446;2022-12-29T15:24:27;3.53;;;1.85;;
37517;SDS011;23366;52.498;13.446;2022-12-29T15:27:33;4.80;;;2.20;;
37517;SDS011;23366;52.498;13.446;2022-12-29T15:30:33;3.85;;;2.10;;
37517;SDS011;23366;52.498;13.446;2022-12-29T15:33:29;5.22;;;1.80;;
37517;SDS011;23366;52.498;13.446;2022-12-29T15:36:26;6.22;;;3.03;;
37517;SDS011;23366;52.498;13.446;2022-12-29T15:39:29;6.35;;;3.90;;
37517;SDS011;23366;52.498;13.446;2022-12-29T15:48:21;4.32;;;2.63;;
37517;SDS011;23366;52.498;13.446;2022-12-29T15:50:59;6.13;;;1.88;;
37517;SDS011;23366;52.498;13.446;2022-12-29T15:53:29;6.78;;;2.90;;
37517;SDS011;23366;52.498;13.446;2022-12-29T15:56:12;7.68;;;3.25;;
37517;SDS011;23366;52.498;13.446;2022-12-29T15:58:45;9.77;;;3.45;;
37517;SDS011;23366;52.498;13.446;2022-12-29T16:01:47;8.18;;;3.95;;
37517;SDS011;23366;52.498;13.446;2022-12-29T16:05:07;6.07;;;3.58;;
37517;SDS011;23366;52.498;13.446;2022-12-29T16:08:36;12.38;;;3.78;;
37517;SDS011;23366;52.498;13.446;2022-12-29T16:11:38;4.53;;;1.95;;
37517;SDS011;23366;52.498;13.446;2022-12-29T16:14:25;5.05;;;2.08;;
37517;SDS011;23366;52.498;13.446;2022-12-29T16:17:47;4.63;;;2.38;;
37517;SDS011;23366;52.498;13.446;2022-12-29T16:23:46;2.85;;;1.73;;
37517;SDS011;23366;52.498;13.446;2022-12-29T16:27:36;4.60;;;2.70;;
37517;SDS011;23366;52.498;13.446;2022-12-29T16:30:28;5.43;;;2.28;;
37517;SDS011;23366;52.498;13.446;2022-12-29T16:36:39;1.92;;;1.17;;
37517;SDS011;23366;52.498;13.446;2022-12-29T16:39:37;5.38;;;1.40;;
37517;SDS011;23366;52.498;13.446;2022-12-29T16:49:19;3.45;;;2.03;;
37517;SDS011;23366;52.498;13.446;2022-12-29T16:52:18;5.50;;;3.40;;
37517;SDS011;23366;52.498;13.446;2022-12-29T16:55:37;6.65;;;2.50;;
37517;SDS011;23366;52.498;13.446;2022-12-29T17:01:20;9.52;;;2.53;;
37517;SDS011;23366;52.498;13.446;2022-12-29T17:07:27;4.20;;;2.50;;
37517;SDS011;23366;52.498;13.446;2022-12-29T17:10:26;7.28;;;2.53;;
37517;SDS011;23366;52.498;13.446;2022-12-29T17:17:03;4.85;;;1.92;;
37517;SDS011;23366;52.498;13.446;2022-12-29T17:20:48;3.85;;;1.55;;
37517;SDS011;23366;52.498;13.446;2022-12-29T17:23:47;4.07;;;1.98;;
37517;SDS011;23366;52.498;13.446;2022-12-29T17:30:52;2.03;;;1.10;;
37517;SDS011;23366;52.498;13.446;2022-12-29T17:37:52;2.42;;;1.67;;
37517;SDS011;23366;52.498;13.446;2022-12-29T17:41:32;5.47;;;2.40;;
37517;SDS011;23366;52.498;13.446;2022-12-29T18:20:08;3.40;;;1.90;;
37517;SDS011;23366;52.498;13.446;2022-12-29T19:01:50;4.97;;;1.98;;
37517;SDS011;23366;52.498;13.446;2022-12-29T19:36:03;7.05;;;3.42;;
37517;SDS011;23366;52.498;13.446;2022-12-29T22:01:41;4.03;;;2.22;;
37517;SDS011;23366;52.498;13.446;2022-12-29T23:21:44;1.63;;;1.48;;
